Time,TemperatureF,DewpointF,PressureIn,WindDirection,WindDirectionDegrees,WindSpeedMPH,WindSpeedGustMPH,Humidity,HourlyPrecipIn,Conditions,Clouds,dailyrainin,SolarRadiationWatts/m^2,SoftwareType,DateUTC
2013-04-03 00:00:00,77.4,73.6,30.07,SSE,168,0.0,3.0,88,0.00,,,0.00,0.0,meteohub,2013-04-03 04:00:00,
2013-04-03 00:05:00,77.4,73.6,30.07,SSE,168,0.0,3.0,88,0.00,,,0.00,0.0,meteohub,2013-04-03 04:05:00,
2013-04-03 00:10:00,77.2,73.4,30.07,SSE,168,0.0,0.0,88,0.00,,,0.00,0.0,meteohub,2013-04-03 04:10:00,
2013-04-03 00:15:00,77.2,73.4,30.07,SSE,168,0.0,0.0,88,0.00,,,0.00,0.0,meteohub,2013-04-03 04:15:00,
2013-04-03 00:20:00,77.2,73.8,30.07,SSE,168,0.0,0.0,89,0.00,,,0.00,0.0,meteohub,2013-04-03 04:20:00,
2013-04-03 00:26:00,77.2,73.8,30.07,SSE,168,0.0,0.0,89,0.00,,,0.00,0.0,meteohub,2013-04-03 04:26:00,
2013-04-03 00:31:00,77.0,73.6,30.07,SSE,168,0.0,0.0,89,0.00,,,0.00,0.0,meteohub,2013-04-03 04:31:00,
2013-04-03 00:36:00,77.0,73.6,30.07,SSE,167,0.0,0.0,89,0.00,,,0.00,0.0,meteohub,2013-04-03 04:36:00,
2013-04-03 00:41:00,77.0,73.6,30.07,South,169,0.0,0.0,89,0.00,,,0.00,0.0,meteohub,2013-04-03 04:41:00,
2013-04-03 00:46:00,77.0,73.8,30.06,SSE,168,0.0,2.0,90,0.00,,,0.00,0.0,meteohub,2013-04-03 04:46:00,
2013-04-03 00:52:00,76.8,73.6,30.06,South,169,0.0,3.0,90,0.00,,,0.00,0.0,meteohub,2013-04-03 04:52:00,
2013-04-03 00:57:00,76.6,73.4,30.06,South,171,0.0,3.0,90,0.00,,,0.00,0.0,meteohub,2013-04-03 04:57:00,
2013-04-03 01:02:00,76.6,73.4,30.05,SSE,168,0.0,3.0,90,0.00,,,0.00,0.0,meteohub,2013-04-03 05:02:00,
2013-04-03 01:07:00,76.6,73.4,30.05,South,172,0.0,0.0,90,0.00,,,0.00,0.0,meteohub,2013-04-03 05:07:00,
2013-04-03 01:12:00,76.6,73.4,30.05,South,175,0.0,0.0,90,0.00,,,0.00,0.0,meteohub,2013-04-03 05:12:00,
2013-04-03 01:17:00,76.6,73.4,30.05,South,172,0.0,4.0,90,0.00,,,0.00,0.0,meteohub,2013-04-03 05:17:00,
2013-04-03 01:22:00,76.5,73.2,30.05,South,174,0.0,4.0,90,0.00,,,0.00,0.0,meteohub,2013-04-03 05:22:00,
2013-04-03 01:27:00,76.5,73.6,30.05,South,172,0.0,3.0,91,0.00,,,0.00,0.0,meteohub,2013-04-03 05:27:00,
2013-04-03 01:32:00,76.5,73.6,30.04,South,175,0.0,3.0,91,0.00,,,0.00,0.0,meteohub,2013-04-03 05:32:00,
2013-04-03 01:37:00,76.3,73.4,30.04,South,174,0.0,0.0,91,0.00,,,0.00,0.0,meteohub,2013-04-03 05:37:00,
2013-04-03 01:42:00,76.3,73.4,30.04,South,172,0.0,0.0,91,0.00,,,0.00,0.0,meteohub,2013-04-03 05:42:00,
2013-04-03 01:47:00,76.3,73.4,30.04,South,174,1.0,0.0,91,0.00,,,0.00,0.0,meteohub,2013-04-03 05:47:00,
2013-04-03 01:52:00,76.1,73.2,30.04,South,172,0.0,3.0,91,0.00,,,0.00,0.0,meteohub,2013-04-03 05:52:00,
2013-04-03 01:57:00,76.1,73.2,30.04,South,174,0.0,3.0,91,0.00,,,0.00,0.0,meteohub,2013-04-03 05:57:00,
2013-04-03 02:02:00,76.1,73.2,30.04,South,172,0.0,3.0,91,0.00,,,0.00,0.0,meteohub,2013-04-03 06:02:00,
2013-04-03 02:07:00,75.9,73.0,30.04,South,172,0.0,0.0,91,0.00,,,0.00,0.0,meteohub,2013-04-03 06:07:00,
2013-04-03 02:12:00,75.9,73.0,30.04,South,175,0.0,0.0,91,0.00,,,0.00,0.0,meteohub,2013-04-03 06:12:00,
2013-04-03 02:17:00,75.9,73.0,30.03,South,174,0.0,0.0,91,0.00,,,0.00,0.0,meteohub,2013-04-03 06:17:00,
2013-04-03 02:22:00,75.9,73.0,30.03,South,174,0.0,0.0,91,0.00,,,0.00,0.0,meteohub,2013-04-03 06:22:00,
2013-04-03 02:27:00,75.7,72.9,30.03,South,172,0.0,0.0,91,0.00,,,0.00,0.0,meteohub,2013-04-03 06:27:00,
2013-04-03 02:32:00,75.7,73.2,30.02,South,174,0.0,0.0,92,0.00,,,0.00,0.0,meteohub,2013-04-03 06:32:00,
2013-04-03 02:37:00,75.7,73.2,30.02,SSE,168,0.0,0.0,92,0.00,,,0.00,0.0,meteohub,2013-04-03 06:37:00,
2013-04-03 02:42:00,75.7,73.2,30.03,South,174,0.0,0.0,92,0.00,,,0.00,0.0,meteohub,2013-04-03 06:42:00,
2013-04-03 02:47:00,75.7,73.2,30.03,South,174,0.0,0.0,92,0.00,,,0.00,0.0,meteohub,2013-04-03 06:47:00,
2013-04-03 02:52:00,75.7,73.2,30.03,South,174,0.0,0.0,92,0.00,,,0.00,0.0,meteohub,2013-04-03 06:52:00,
2013-04-03 02:58:00,75.7,73.2,30.02,South,174,0.0,0.0,92,0.00,,,0.00,0.0,meteohub,2013-04-03 06:58:00,
2013-04-03 03:03:00,75.6,73.0,30.02,South,174,0.0,0.0,92,0.00,,,0.00,0.0,meteohub,2013-04-03 07:03:00,
2013-04-03 03:08:00,75.6,73.0,30.02,South,174,0.0,0.0,92,0.00,,,0.00,0.0,meteohub,2013-04-03 07:08:00,
2013-04-03 03:13:00,75.6,73.0,30.02,South,172,0.0,0.0,92,0.00,,,0.00,0.0,meteohub,2013-04-03 07:13:00,
2013-04-03 03:18:00,75.6,73.0,30.02,South,174,0.0,0.0,92,0.00,,,0.00,0.0,meteohub,2013-04-03 07:18:00,
2013-04-03 03:23:00,75.6,73.0,30.02,South,174,0.0,0.0,92,0.00,,,0.00,0.0,meteohub,2013-04-03 07:23:00,
2013-04-03 03:28:00,75.6,73.0,30.02,South,174,0.0,0.0,92,0.00,,,0.00,0.0,meteohub,2013-04-03 07:28:00,
2013-04-03 03:33:00,75.6,73.0,30.02,South,172,0.0,0.0,92,0.00,,,0.00,0.0,meteohub,2013-04-03 07:33:00,
2013-04-03 03:38:00,75.4,72.9,30.02,South,174,0.0,0.0,92,0.00,,,0.00,0.0,meteohub,2013-04-03 07:38:00,
2013-04-03 03:43:00,75.4,73.2,30.02,South,174,0.0,0.0,93,0.00,,,0.00,0.0,meteohub,2013-04-03 07:43:00,
2013-04-03 03:48:00,75.4,73.2,30.02,South,174,0.0,0.0,93,0.00,,,0.00,0.0,meteohub,2013-04-03 07:48:00,
2013-04-03 03:53:00,75.4,73.2,30.02,South,174,0.0,0.0,93,0.00,,,0.00,0.0,meteohub,2013-04-03 07:53:00,
2013-04-03 03:58:00,75.4,73.2,30.03,South,172,0.0,0.0,93,0.00,,,0.00,0.0,meteohub,2013-04-03 07:58:00,
2013-04-03 04:04:00,75.4,73.2,30.03,South,174,0.0,0.0,93,0.00,,,0.00,0.0,meteohub,2013-04-03 08:04:00,
2013-04-03 04:09:00,75.4,73.2,30.03,South,172,0.0,0.0,93,0.00,,,0.00,0.0,meteohub,2013-04-03 08:09:00,
2013-04-03 04:14:00,75.0,72.9,30.03,South,172,0.0,0.0,93,0.00,,,0.00,0.0,meteohub,2013-04-03 08:14:00,
2013-04-03 04:19:00,75.4,73.2,30.03,South,174,0.0,0.0,93,0.00,,,0.00,0.0,meteohub,2013-04-03 08:19:00,
2013-04-03 04:24:00,75.4,73.2,30.03,South,172,0.0,0.0,93,0.00,,,0.00,0.0,meteohub,2013-04-03 08:24:00,
2013-04-03 04:29:00,75.0,72.9,30.03,South,174,0.0,0.0,93,0.00,,,0.00,0.0,meteohub,2013-04-03 08:29:00,
2013-04-03 04:34:00,75.0,72.9,30.03,South,172,0.0,0.0,93,0.00,,,0.00,0.0,meteohub,2013-04-03 08:34:00,
2013-04-03 04:39:00,75.0,72.9,30.03,South,174,0.0,0.0,93,0.00,,,0.00,0.0,meteohub,2013-04-03 08:39:00,
2013-04-03 04:44:00,75.0,72.9,30.03,South,174,0.0,0.0,93,0.00,,,0.00,0.0,meteohub,2013-04-03 08:44:00,
2013-04-03 04:49:00,75.0,72.9,30.03,South,174,0.0,0.0,93,0.00,,,0.00,0.0,meteohub,2013-04-03 08:49:00,
2013-04-03 04:54:00,75.0,73.2,30.03,South,174,0.0,0.0,94,0.00,,,0.00,0.0,meteohub,2013-04-03 08:54:00,
2013-04-03 04:59:00,75.0,73.2,30.04,South,175,0.0,0.0,94,0.00,,,0.00,0.0,meteohub,2013-04-03 08:59:00,
2013-04-03 05:04:00,75.0,73.2,30.04,South,174,0.0,2.0,94,0.00,,,0.00,0.0,meteohub,2013-04-03 09:04:00,
2013-04-03 05:09:00,75.0,73.2,30.04,South,172,0.0,2.0,94,0.00,,,0.00,0.0,meteohub,2013-04-03 09:09:00,
2013-04-03 05:14:00,75.0,73.2,30.04,South,174,0.0,2.0,94,0.00,,,0.00,0.0,meteohub,2013-04-03 09:14:00,
2013-04-03 05:19:00,74.8,73.0,30.04,South,175,0.0,0.0,94,0.00,,,0.00,0.0,meteohub,2013-04-03 09:19:00,
2013-04-03 05:24:00,74.8,73.0,30.04,South,174,0.0,0.0,94,0.00,,,0.00,0.0,meteohub,2013-04-03 09:24:00,
2013-04-03 05:29:00,74.8,73.0,30.04,South,174,0.0,0.0,94,0.00,,,0.00,0.0,meteohub,2013-04-03 09:29:00,
2013-04-03 05:34:00,74.8,73.0,30.04,South,172,0.0,0.0,94,0.00,,,0.00,0.0,meteohub,2013-04-03 09:34:00,
2013-04-03 05:39:00,74.7,72.9,30.04,South,172,0.0,0.0,94,0.00,,,0.00,0.0,meteohub,2013-04-03 09:39:00,
2013-04-03 05:44:00,74.7,72.9,30.04,South,174,0.0,0.0,94,0.00,,,0.00,0.0,meteohub,2013-04-03 09:44:00,
2013-04-03 05:50:00,74.7,72.9,30.04,South,174,0.0,0.0,94,0.00,,,0.00,0.0,meteohub,2013-04-03 09:50:00,
2013-04-03 05:55:00,74.7,72.9,30.04,South,174,0.0,0.0,94,0.00,,,0.00,0.0,meteohub,2013-04-03 09:55:00,
2013-04-03 06:00:00,74.7,72.9,30.05,South,174,0.0,0.0,94,0.00,,,0.00,0.0,meteohub,2013-04-03 10:00:00,
2013-04-03 06:05:00,74.7,72.9,30.05,South,174,0.0,0.0,94,0.00,,,0.00,0.0,meteohub,2013-04-03 10:05:00,
2013-04-03 06:10:00,74.8,73.2,30.05,South,174,0.0,0.0,95,0.00,,,0.00,0.0,meteohub,2013-04-03 10:10:00,
2013-04-03 06:15:00,74.8,73.2,30.05,South,175,0.0,3.0,95,0.00,,,0.00,0.0,meteohub,2013-04-03 10:15:00,
2013-04-03 06:20:00,75.0,73.4,30.05,South,175,0.0,3.0,95,0.00,,,0.00,0.0,meteohub,2013-04-03 10:20:00,
2013-04-03 06:25:00,75.0,73.4,30.05,South,175,0.0,3.0,95,0.00,,,0.00,7.0,meteohub,2013-04-03 10:25:00,
2013-04-03 06:30:00,75.0,73.4,30.05,South,175,0.0,3.0,95,0.00,,,0.00,11.0,meteohub,2013-04-03 10:30:00,
2013-04-03 06:35:00,75.0,73.4,30.05,South,174,0.0,2.0,95,0.00,,,0.00,28.0,meteohub,2013-04-03 10:35:00,
2013-04-03 06:40:00,75.4,73.8,30.05,South,174,0.0,2.0,95,0.00,,,0.00,39.0,meteohub,2013-04-03 10:40:00,
2013-04-03 06:45:00,75.4,73.8,30.06,South,174,0.0,0.0,95,0.00,,,0.00,49.0,meteohub,2013-04-03 10:45:00,
2013-04-03 06:50:00,75.6,73.9,30.06,South,172,0.0,0.0,95,0.00,,,0.00,76.0,meteohub,2013-04-03 10:50:00,
2013-04-03 06:55:00,75.6,73.9,30.06,South,172,0.0,2.0,95,0.00,,,0.00,90.0,meteohub,2013-04-03 10:55:00,
2013-04-03 07:00:00,75.7,73.9,30.06,South,172,0.0,2.0,94,0.00,,,0.00,107.0,meteohub,2013-04-03 11:00:00,
2013-04-03 07:05:00,75.9,74.1,30.06,South,174,0.0,3.0,94,0.00,,,0.00,127.0,meteohub,2013-04-03 11:05:00,
2013-04-03 07:10:00,76.1,74.3,30.06,South,174,0.0,3.0,94,0.00,,,0.00,135.0,meteohub,2013-04-03 11:10:00,
2013-04-03 07:15:00,76.5,74.3,30.07,South,172,0.0,3.0,93,0.00,,,0.00,151.0,meteohub,2013-04-03 11:15:00,
2013-04-03 07:20:00,76.6,74.1,30.07,South,172,0.0,0.0,92,0.00,,,0.00,174.0,meteohub,2013-04-03 11:20:00,
2013-04-03 07:25:00,77.0,74.5,30.07,South,172,0.0,2.0,92,0.00,,,0.00,118.0,meteohub,2013-04-03 11:25:00,
2013-04-03 07:31:00,77.4,74.5,30.07,South,172,0.0,2.0,91,0.00,,,0.00,77.0,meteohub,2013-04-03 11:31:00,
2013-04-03 07:36:00,77.7,74.5,30.07,South,174,0.0,5.0,90,0.00,,,0.00,144.0,meteohub,2013-04-03 11:36:00,
2013-04-03 07:41:00,77.9,74.5,30.07,SSE,167,0.0,6.0,89,0.00,,,0.00,264.0,meteohub,2013-04-03 11:41:00,
2013-04-03 07:46:00,78.3,74.5,30.08,SSE,168,0.0,6.0,88,0.00,,,0.00,283.0,meteohub,2013-04-03 11:46:00,
2013-04-03 07:51:00,78.6,74.5,30.08,South,191,3.0,6.0,87,0.00,,,0.00,303.0,meteohub,2013-04-03 11:51:00,
2013-04-03 07:56:00,79.0,74.8,30.08,SSE,168,0.0,6.0,87,0.00,,,0.00,322.0,meteohub,2013-04-03 11:56:00,
2013-04-03 08:01:00,79.3,74.8,30.09,SSE,151,0.0,6.0,86,0.00,,,0.00,345.0,meteohub,2013-04-03 12:01:00,
2013-04-03 08:06:00,79.5,75.0,30.09,SSE,150,0.0,8.0,86,0.00,,,0.00,362.0,meteohub,2013-04-03 12:06:00,
2013-04-03 08:12:00,79.9,75.4,30.09,SSE,164,6.0,8.0,86,0.00,,,0.00,387.0,meteohub,2013-04-03 12:12:00,
2013-04-03 08:17:00,80.1,75.2,30.09,South,182,0.0,8.0,85,0.00,,,0.00,431.0,meteohub,2013-04-03 12:17:00,
2013-04-03 08:22:00,80.4,75.6,30.09,SSE,164,4.0,10.0,85,0.00,,,0.00,450.0,meteohub,2013-04-03 12:22:00,
2013-04-03 08:27:00,80.4,75.2,30.09,SSW,198,2.0,10.0,84,0.00,,,0.00,461.0,meteohub,2013-04-03 12:27:00,
2013-04-03 08:32:00,81.0,75.7,30.09,SW,220,5.0,11.0,84,0.00,,,0.00,479.0,meteohub,2013-04-03 12:32:00,
2013-04-03 08:36:00,81.1,75.9,30.09,SE,144,7.0,11.0,84,0.00,,,0.00,494.0,meteohub,2013-04-03 12:36:00,
2013-04-03 08:42:00,81.1,75.6,30.09,South,178,6.0,11.0,83,0.00,,,0.00,512.0,meteohub,2013-04-03 12:42:00,
2013-04-03 08:47:00,81.3,75.7,30.09,South,181,6.0,13.0,83,0.00,,,0.00,528.0,meteohub,2013-04-03 12:47:00,
2013-04-03 08:52:00,81.3,75.4,30.09,South,188,7.0,13.0,82,0.00,,,0.00,547.0,meteohub,2013-04-03 12:52:00,
2013-04-03 08:57:00,81.9,75.4,30.09,South,191,2.0,12.0,81,0.00,,,0.00,572.0,meteohub,2013-04-03 12:57:00,
2013-04-03 09:02:00,82.4,75.9,30.10,SSE,167,5.0,12.0,81,0.00,,,0.00,593.0,meteohub,2013-04-03 13:02:00,
2013-04-03 09:07:00,82.6,75.7,30.10,South,175,6.0,12.0,80,0.00,,,0.00,618.0,meteohub,2013-04-03 13:07:00,
2013-04-03 09:12:00,82.9,75.7,30.10,South,184,3.0,11.0,79,0.00,,,0.00,655.0,meteohub,2013-04-03 13:12:00,
2013-04-03 09:17:00,83.1,75.6,30.10,South,174,6.0,10.0,78,0.00,,,0.00,651.0,meteohub,2013-04-03 13:17:00,
2013-04-03 09:22:00,83.1,75.2,30.10,South,182,7.0,10.0,77,0.00,,,0.00,684.0,meteohub,2013-04-03 13:22:00,
2013-04-03 09:27:00,83.5,75.6,30.10,SSW,195,8.0,10.0,77,0.00,,,0.00,713.0,meteohub,2013-04-03 13:27:00,
2013-04-03 09:32:00,83.7,75.2,30.09,SSW,193,5.0,13.0,76,0.00,,,0.00,695.0,meteohub,2013-04-03 13:32:00,
2013-04-03 09:37:00,84.0,75.6,30.09,SE,137,5.0,13.0,76,0.00,,,0.00,737.0,meteohub,2013-04-03 13:37:00,
2013-04-03 09:42:00,84.0,75.2,30.10,SSE,168,4.0,13.0,75,0.00,,,0.00,693.0,meteohub,2013-04-03 13:42:00,
2013-04-03 09:47:00,84.0,74.8,30.10,South,179,10.0,13.0,74,0.00,,,0.00,799.0,meteohub,2013-04-03 13:47:00,
2013-04-03 09:52:00,84.0,74.8,30.10,SSE,164,7.0,13.0,74,0.00,,,0.00,809.0,meteohub,2013-04-03 13:52:00,
2013-04-03 09:57:00,84.4,75.2,30.09,SSE,151,1.0,13.0,74,0.00,,,0.00,801.0,meteohub,2013-04-03 13:57:00,
2013-04-03 10:03:00,84.4,74.8,30.09,South,175,4.0,13.0,73,0.00,,,0.00,783.0,meteohub,2013-04-03 14:03:00,
2013-04-03 10:08:00,84.4,74.8,30.09,South,188,7.0,15.0,73,0.00,,,0.00,213.0,meteohub,2013-04-03 14:08:00,
2013-04-03 10:13:00,84.9,74.8,30.09,South,188,4.0,15.0,72,0.00,,,0.00,878.0,meteohub,2013-04-03 14:13:00,
2013-04-03 10:18:00,85.5,75.0,30.09,SSE,155,5.0,15.0,71,0.00,,,0.00,845.0,meteohub,2013-04-03 14:18:00,
2013-04-03 10:23:00,85.8,73.9,30.09,SSW,209,7.0,14.0,68,0.00,,,0.00,841.0,meteohub,2013-04-03 14:23:00,
2013-04-03 10:28:00,86.4,74.5,30.09,SSE,167,1.0,14.0,68,0.00,,,0.00,855.0,meteohub,2013-04-03 14:28:00,
2013-04-03 10:33:00,87.3,75.4,30.09,South,178,6.0,12.0,68,0.00,,,0.00,864.0,meteohub,2013-04-03 14:33:00,
2013-04-03 10:38:00,87.8,73.6,30.09,SSE,151,6.0,12.0,63,0.00,,,0.00,887.0,meteohub,2013-04-03 14:38:00,
2013-04-03 10:43:00,88.2,73.4,30.09,SE,145,9.0,11.0,62,0.00,,,0.00,906.0,meteohub,2013-04-03 14:43:00,
2013-04-03 10:48:00,88.3,73.6,30.09,South,184,0.0,14.0,62,0.00,,,0.00,918.0,meteohub,2013-04-03 14:48:00,
2013-04-03 10:53:00,88.9,74.1,30.09,SSW,199,6.0,14.0,62,0.00,,,0.00,931.0,meteohub,2013-04-03 14:53:00,
2013-04-03 10:58:00,88.3,74.1,30.09,South,179,0.0,14.0,63,0.00,,,0.00,950.0,meteohub,2013-04-03 14:58:00,
2013-04-03 11:03:00,88.5,74.3,30.09,South,169,3.0,12.0,63,0.00,,,0.00,955.0,meteohub,2013-04-03 15:03:00,
2013-04-03 11:08:00,89.1,74.3,30.09,SSW,196,3.0,12.0,62,0.00,,,0.00,985.0,meteohub,2013-04-03 15:08:00,
2013-04-03 11:13:00,89.4,74.1,30.08,SSE,151,7.0,10.0,61,0.00,,,0.00,878.0,meteohub,2013-04-03 15:13:00,
2013-04-03 11:18:00,89.8,74.5,30.08,SSW,198,0.0,12.0,61,0.00,,,0.00,1006.0,meteohub,2013-04-03 15:18:00,
2013-04-03 11:24:00,89.8,74.5,30.08,South,176,2.0,12.0,61,0.00,,,0.00,732.0,meteohub,2013-04-03 15:24:00,
2013-04-03 11:29:00,90.3,74.5,30.08,SE,126,5.0,12.0,60,0.00,,,0.00,1036.0,meteohub,2013-04-03 15:29:00,
2013-04-03 11:34:00,90.5,73.2,30.08,SSW,192,6.0,13.0,57,0.00,,,0.00,1021.0,meteohub,2013-04-03 15:34:00,
2013-04-03 11:39:00,90.5,73.2,30.08,SW,230,8.0,14.0,57,0.00,,,0.00,1050.0,meteohub,2013-04-03 15:39:00,
2013-04-03 11:44:00,90.3,74.1,30.07,South,186,3.0,14.0,59,0.00,,,0.00,1094.0,meteohub,2013-04-03 15:44:00,
2013-04-03 11:49:00,89.8,73.6,30.07,South,182,2.0,13.0,59,0.00,,,0.00,274.0,meteohub,2013-04-03 15:49:00,
2013-04-03 11:54:00,89.8,73.0,30.07,South,181,7.0,13.0,58,0.00,,,0.00,1117.0,meteohub,2013-04-03 15:54:00,
2013-04-03 12:00:00,90.0,73.2,30.06,South,189,5.0,11.0,58,0.00,,,0.00,1124.0,meteohub,2013-04-03 16:00:00,
2013-04-03 12:05:00,89.2,73.0,30.06,South,186,3.0,13.0,59,0.00,,,0.00,345.0,meteohub,2013-04-03 16:05:00,
2013-04-03 12:10:00,88.9,73.2,30.06,South,185,0.0,13.0,60,0.00,,,0.00,380.0,meteohub,2013-04-03 16:10:00,
2013-04-03 12:15:00,89.2,72.0,30.06,SSW,195,5.0,13.0,57,0.00,,,0.00,1186.0,meteohub,2013-04-03 16:15:00,
2013-04-03 12:20:00,90.0,72.1,30.06,South,185,2.0,12.0,56,0.00,,,0.00,1237.0,meteohub,2013-04-03 16:20:00,
2013-04-03 12:25:00,90.1,71.8,30.06,SSE,158,6.0,12.0,55,0.00,,,0.00,350.0,meteohub,2013-04-03 16:25:00,
2013-04-03 12:30:00,90.1,71.8,30.05,SSW,203,3.0,9.0,55,0.00,,,0.00,1214.0,meteohub,2013-04-03 16:30:00,
2013-04-03 12:35:00,90.0,72.1,30.05,SSE,154,0.0,8.0,56,0.00,,,0.00,1214.0,meteohub,2013-04-03 16:35:00,
2013-04-03 12:40:00,91.0,72.7,30.05,SE,137,0.0,8.0,55,0.00,,,0.00,373.0,meteohub,2013-04-03 16:40:00,
2013-04-03 12:45:00,90.3,72.0,30.04,SSE,154,0.0,8.0,55,0.00,,,0.00,253.0,meteohub,2013-04-03 16:45:00,
2013-04-03 12:50:00,89.2,72.0,30.04,SSE,158,0.0,8.0,57,0.00,,,0.00,188.0,meteohub,2013-04-03 16:50:00,
2013-04-03 12:56:00,88.5,73.8,30.04,NNW,340,0.0,7.0,62,0.00,,,0.00,160.0,meteohub,2013-04-03 16:56:00,
2013-04-03 13:01:00,88.0,73.8,30.04,NNW,342,0.0,6.0,63,0.00,,,0.00,220.0,meteohub,2013-04-03 17:01:00,
2013-04-03 13:06:00,87.8,73.2,30.04,South,188,0.0,6.0,62,0.00,,,0.00,245.0,meteohub,2013-04-03 17:06:00,
2013-04-03 13:11:00,88.3,71.6,30.04,SSE,148,0.0,7.0,58,0.00,,,0.00,825.0,meteohub,2013-04-03 17:11:00,
2013-04-03 13:16:00,89.4,72.7,30.03,SSE,147,0.0,7.0,58,0.00,,,0.00,825.0,meteohub,2013-04-03 17:16:00,
2013-04-03 13:21:00,89.8,72.5,30.03,SSE,168,0.0,7.0,57,0.00,,,0.00,412.0,meteohub,2013-04-03 17:21:00,
2013-04-03 13:26:00,89.8,72.5,30.03,South,178,2.0,7.0,57,0.00,,,0.00,243.0,meteohub,2013-04-03 17:26:00,
2013-04-03 13:31:00,89.1,72.9,30.02,SE,136,0.0,8.0,59,0.00,,,0.00,195.0,meteohub,2013-04-03 17:31:00,
2013-04-03 13:36:00,88.3,72.7,30.02,ENE,76,2.0,10.0,60,0.00,,,0.00,185.0,meteohub,2013-04-03 17:36:00,
2013-04-03 13:42:00,87.4,74.3,30.02,ENE,64,5.0,10.0,65,0.00,,,0.00,201.0,meteohub,2013-04-03 17:42:00,
2013-04-03 13:47:00,85.8,74.8,30.02,NE,51,12.0,12.0,70,0.00,,,0.00,118.0,meteohub,2013-04-03 17:47:00,
2013-04-03 13:52:00,83.8,73.8,30.02,NE,44,10.0,20.0,72,0.00,,,0.00,79.0,meteohub,2013-04-03 17:52:00,
2013-04-03 13:57:00,81.9,73.6,30.02,ENE,72,101.0,101.0,76,0.01,,,0.01,63.0,meteohub,2013-04-03 17:57:00,
2013-04-03 14:02:00,81.1,73.9,30.02,NE,54,6.0,105.0,79,0.06,,,0.06,62.0,meteohub,2013-04-03 18:02:00,
2013-04-03 14:07:00,80.4,73.8,30.02,NE,41,0.0,105.0,80,0.08,,,0.08,83.0,meteohub,2013-04-03 18:07:00,
2013-04-03 14:13:00,80.4,73.8,30.01,NNE,24,0.0,105.0,80,0.10,,,0.10,76.0,meteohub,2013-04-03 18:13:00,
2013-04-03 14:18:00,81.1,74.7,30.01,NNE,24,0.0,103.0,81,0.12,,,0.12,93.0,meteohub,2013-04-03 18:18:00,
2013-04-03 14:23:00,81.3,74.8,30.01,NNE,23,0.0,10.0,81,0.12,,,0.12,104.0,meteohub,2013-04-03 18:23:00,
2013-04-03 14:28:00,81.3,76.1,30.01,NNE,24,0.0,1.0,84,0.16,,,0.16,104.0,meteohub,2013-04-03 18:28:00,
2013-04-03 14:33:00,81.1,76.5,30.01,NNE,25,0.0,0.0,86,0.16,,,0.16,134.0,meteohub,2013-04-03 18:33:00,
2013-04-03 14:38:00,81.1,76.8,30.01,NNE,23,0.0,0.0,87,0.16,,,0.16,183.0,meteohub,2013-04-03 18:38:00,
2013-04-03 14:43:00,81.7,77.0,30.01,North,359,0.0,0.0,86,0.16,,,0.16,157.0,meteohub,2013-04-03 18:43:00,
2013-04-03 14:48:00,81.9,77.2,30.01,North,356,0.0,4.0,86,0.16,,,0.16,190.0,meteohub,2013-04-03 18:48:00,
2013-04-03 14:54:00,82.0,77.0,30.01,North,356,0.0,4.0,85,0.16,,,0.16,310.0,meteohub,2013-04-03 18:54:00,
2013-04-03 14:59:00,82.4,77.0,30.00,North,357,0.0,4.0,84,0.14,,,0.16,282.0,meteohub,2013-04-03 18:59:00,
2013-04-03 15:04:00,82.9,77.2,30.00,North,8,0.0,0.0,83,0.09,,,0.16,232.0,meteohub,2013-04-03 19:04:00,
2013-04-03 15:09:00,83.5,76.6,30.00,NE,34,0.0,2.0,80,0.08,,,0.17,153.0,meteohub,2013-04-03 19:09:00,
2013-04-03 15:14:00,83.8,76.3,29.99,NE,34,0.0,5.0,78,0.06,,,0.17,153.0,meteohub,2013-04-03 19:14:00,
2013-04-03 15:20:00,83.8,75.9,29.99,NE,35,0.0,5.0,77,0.05,,,0.17,165.0,meteohub,2013-04-03 19:20:00,
2013-04-03 15:25:00,84.0,75.6,29.99,ENE,78,0.0,5.0,76,0.04,,,0.17,132.0,meteohub,2013-04-03 19:25:00,
2013-04-03 15:30:00,84.0,75.6,29.99,East,79,0.0,3.0,76,0.01,,,0.17,134.0,meteohub,2013-04-03 19:30:00,
2013-04-03 15:35:00,84.0,75.6,29.99,East,79,0.0,5.0,76,0.01,,,0.17,143.0,meteohub,2013-04-03 19:35:00,
2013-04-03 15:40:00,84.4,75.6,29.99,ENE,73,0.0,7.0,75,0.01,,,0.17,165.0,meteohub,2013-04-03 19:40:00,
2013-04-03 15:45:00,84.4,75.2,29.98,East,89,8.0,8.0,74,0.01,,,0.17,114.0,meteohub,2013-04-03 19:45:00,
2013-04-03 15:50:00,84.4,75.6,29.98,ENE,73,0.0,14.0,75,0.01,,,0.17,139.0,meteohub,2013-04-03 19:50:00,
2013-04-03 15:56:00,84.4,75.2,29.98,East,88,5.0,14.0,74,0.01,,,0.17,113.0,meteohub,2013-04-03 19:56:00,
2013-04-03 16:01:00,84.4,74.8,29.98,East,92,6.0,14.0,73,0.01,,,0.17,93.0,meteohub,2013-04-03 20:01:00,
2013-04-03 16:06:00,84.6,75.4,29.98,ENE,69,7.0,13.0,74,0.00,,,0.17,83.0,meteohub,2013-04-03 20:06:00,
2013-04-03 16:11:00,84.4,74.8,29.98,East,80,6.0,13.0,73,0.00,,,0.17,88.0,meteohub,2013-04-03 20:11:00,
2013-04-03 16:16:00,84.4,74.8,29.98,NE,56,5.0,12.0,73,0.00,,,0.17,70.0,meteohub,2013-04-03 20:16:00,
2013-04-03 16:21:00,84.0,73.9,29.98,East,93,6.0,12.0,72,0.00,,,0.17,81.0,meteohub,2013-04-03 20:21:00,
2013-04-03 16:26:00,84.0,73.6,29.98,ENE,75,5.0,13.0,71,0.00,,,0.17,125.0,meteohub,2013-04-03 20:26:00,
2013-04-03 16:31:00,84.0,73.6,29.98,ENE,72,5.0,13.0,71,0.00,,,0.17,88.0,meteohub,2013-04-03 20:31:00,
2013-04-03 16:37:00,84.0,73.6,29.98,ENE,75,8.0,13.0,71,0.00,,,0.17,95.0,meteohub,2013-04-03 20:37:00,
2013-04-03 16:42:00,84.0,73.9,29.98,ESE,104,3.0,14.0,72,0.00,,,0.17,58.0,meteohub,2013-04-03 20:42:00,
2013-04-03 16:47:00,84.0,74.5,29.98,ESE,107,5.0,14.0,73,0.00,,,0.17,70.0,meteohub,2013-04-03 20:47:00,
2013-04-03 16:52:00,83.8,74.3,29.98,East,99,0.0,14.0,73,0.00,,,0.17,69.0,meteohub,2013-04-03 20:52:00,
2013-04-03 16:57:00,83.8,74.3,29.98,East,97,0.0,12.0,73,0.00,,,0.17,65.0,meteohub,2013-04-03 20:57:00,
2013-04-03 17:02:00,83.8,74.7,29.98,ENE,76,0.0,12.0,74,0.00,,,0.17,53.0,meteohub,2013-04-03 21:02:00,
2013-04-03 17:07:00,83.8,74.3,29.98,ESE,103,9.0,11.0,73,0.00,,,0.17,48.0,meteohub,2013-04-03 21:07:00,
2013-04-03 17:12:00,83.7,74.5,29.98,ESE,119,0.0,11.0,74,0.00,,,0.17,49.0,meteohub,2013-04-03 21:12:00,
2013-04-03 17:17:00,83.7,74.8,29.98,East,90,0.0,11.0,75,0.00,,,0.17,55.0,meteohub,2013-04-03 21:17:00,
2013-04-03 17:22:00,83.5,74.7,29.98,SE,134,0.0,11.0,75,0.00,,,0.17,56.0,meteohub,2013-04-03 21:22:00,
2013-04-03 17:27:00,83.5,73.9,29.98,SSE,157,0.0,8.0,73,0.00,,,0.17,60.0,meteohub,2013-04-03 21:27:00,
2013-04-03 17:32:00,83.7,73.6,29.99,SE,128,6.0,10.0,72,0.00,,,0.17,63.0,meteohub,2013-04-03 21:32:00,
2013-04-03 17:37:00,83.7,73.2,29.99,SE,133,0.0,10.0,71,0.00,,,0.17,48.0,meteohub,2013-04-03 21:37:00,
2013-04-03 17:42:00,83.7,73.6,29.99,ESE,106,6.0,10.0,72,0.00,,,0.17,35.0,meteohub,2013-04-03 21:42:00,
2013-04-03 17:47:00,83.5,73.6,29.99,SE,144,8.0,10.0,72,0.00,,,0.17,33.0,meteohub,2013-04-03 21:47:00,
2013-04-03 17:52:00,83.1,73.2,29.99,South,172,0.0,12.0,72,0.00,,,0.17,26.0,meteohub,2013-04-03 21:52:00,
2013-04-03 17:58:00,82.8,72.9,29.99,SSE,164,2.0,12.0,72,0.00,,,0.17,25.0,meteohub,2013-04-03 21:58:00,
2013-04-03 18:03:00,82.8,73.2,29.99,SSE,154,2.0,12.0,73,0.00,,,0.17,28.0,meteohub,2013-04-03 22:03:00,
2013-04-03 18:08:00,82.6,73.0,29.99,SSE,162,3.0,12.0,73,0.00,,,0.17,26.0,meteohub,2013-04-03 22:08:00,
2013-04-03 18:13:00,82.4,73.2,29.99,SSE,147,11.0,11.0,74,0.00,,,0.17,25.0,meteohub,2013-04-03 22:13:00,
2013-04-03 18:18:00,82.4,73.8,29.99,SE,143,3.0,8.0,75,0.00,,,0.17,21.0,meteohub,2013-04-03 22:18:00,
2013-04-03 18:23:00,82.2,73.6,29.99,SSE,151,6.0,11.0,75,0.00,,,0.17,11.0,meteohub,2013-04-03 22:23:00,
2013-04-03 18:28:00,82.0,73.4,30.00,SE,144,2.0,11.0,75,0.00,,,0.17,7.0,meteohub,2013-04-03 22:28:00,
2013-04-03 18:33:00,81.9,73.6,30.00,SSE,152,0.0,10.0,76,0.00,,,0.17,5.0,meteohub,2013-04-03 22:33:00,
2013-04-03 18:38:00,81.7,73.8,30.00,SE,141,0.0,9.0,77,0.00,,,0.17,0.0,meteohub,2013-04-03 22:38:00,
2013-04-03 18:43:00,81.7,73.8,30.01,SE,136,3.0,7.0,77,0.00,,,0.17,0.0,meteohub,2013-04-03 22:43:00,
2013-04-03 18:48:00,81.3,73.8,30.01,SE,128,0.0,7.0,78,0.00,,,0.17,0.0,meteohub,2013-04-03 22:48:00,
2013-04-03 18:53:00,81.1,73.6,30.01,SSE,155,0.0,7.0,78,0.00,,,0.17,0.0,meteohub,2013-04-03 22:53:00,
2013-04-03 18:58:00,81.1,73.9,30.01,SSE,160,0.0,7.0,79,0.00,,,0.17,0.0,meteohub,2013-04-03 22:58:00,
2013-04-03 19:03:00,81.1,73.9,30.01,SSE,151,0.0,7.0,79,0.00,,,0.17,0.0,meteohub,2013-04-03 23:03:00,
2013-04-03 19:08:00,81.1,73.9,30.01,SSE,150,0.0,7.0,79,0.00,,,0.17,0.0,meteohub,2013-04-03 23:08:00,
2013-04-03 19:14:00,81.1,74.3,30.02,SSE,152,0.0,7.0,80,0.00,,,0.17,0.0,meteohub,2013-04-03 23:14:00,
2013-04-03 19:19:00,81.1,74.3,30.02,SSE,155,0.0,7.0,80,0.00,,,0.17,0.0,meteohub,2013-04-03 23:19:00,
2013-04-03 19:24:00,81.0,74.1,30.02,SSE,157,0.0,1.0,80,0.00,,,0.17,0.0,meteohub,2013-04-03 23:24:00,
2013-04-03 19:29:00,80.8,74.5,30.02,SSE,154,0.0,5.0,81,0.00,,,0.17,0.0,meteohub,2013-04-03 23:29:00,
2013-04-03 19:34:00,80.8,74.5,30.02,SSE,158,5.0,11.0,81,0.00,,,0.17,0.0,meteohub,2013-04-03 23:34:00,
2013-04-03 19:39:00,80.8,74.5,30.02,South,185,0.0,11.0,81,0.00,,,0.17,0.0,meteohub,2013-04-03 23:39:00,
2013-04-03 19:44:00,80.4,74.1,30.03,South,171,0.0,8.0,81,0.00,,,0.17,0.0,meteohub,2013-04-03 23:44:00,
2013-04-03 19:50:00,80.4,74.1,30.03,South,172,0.0,8.0,81,0.00,,,0.17,0.0,meteohub,2013-04-03 23:50:00,
2013-04-03 19:55:00,80.4,74.5,30.03,SSE,150,0.0,7.0,82,0.00,,,0.17,0.0,meteohub,2013-04-03 23:55:00,
2013-04-03 20:00:00,80.2,74.3,30.04,SE,136,0.0,6.0,82,0.00,,,0.17,0.0,meteohub,2013-04-04 00:00:00,
2013-04-03 20:05:00,80.2,74.3,30.04,SE,136,0.0,6.0,82,0.00,,,0.17,0.0,meteohub,2013-04-04 00:05:00,
2013-04-03 20:10:00,80.1,74.5,30.04,SE,136,0.0,6.0,83,0.00,,,0.17,0.0,meteohub,2013-04-04 00:10:00,
2013-04-03 20:15:00,79.9,74.3,30.04,SE,131,0.0,0.0,83,0.00,,,0.17,0.0,meteohub,2013-04-04 00:15:00,
2013-04-03 20:20:00,79.9,74.7,30.04,SE,137,0.0,0.0,84,0.00,,,0.17,0.0,meteohub,2013-04-04 00:20:00,
2013-04-03 20:25:00,79.9,74.7,30.04,SE,145,4.0,4.0,84,0.00,,,0.17,0.0,meteohub,2013-04-04 00:25:00,
2013-04-03 20:30:00,79.9,74.7,30.05,SE,145,0.0,6.0,84,0.00,,,0.17,0.0,meteohub,2013-04-04 00:30:00,
2013-04-03 20:35:00,79.5,74.7,30.05,SE,145,0.0,6.0,85,0.00,,,0.17,0.0,meteohub,2013-04-04 00:35:00,
2013-04-03 20:40:00,79.5,74.7,30.05,SSE,148,0.0,6.0,85,0.00,,,0.17,0.0,meteohub,2013-04-04 00:40:00,
2013-04-03 20:45:00,79.5,74.7,30.05,SSE,150,0.0,1.0,85,0.00,,,0.17,0.0,meteohub,2013-04-04 00:45:00,
2013-04-03 20:50:00,79.2,74.3,30.05,ESE,123,0.0,6.0,85,0.00,,,0.17,0.0,meteohub,2013-04-04 00:50:00,
2013-04-03 20:56:00,79.2,74.3,30.05,SE,124,0.0,6.0,85,0.00,,,0.17,0.0,meteohub,2013-04-04 00:56:00,
2013-04-03 21:01:00,79.0,74.1,30.05,SE,124,0.0,6.0,85,0.00,,,0.17,0.0,meteohub,2013-04-04 01:01:00,
2013-04-03 21:06:00,79.0,74.5,30.05,ESE,123,0.0,0.0,86,0.00,,,0.17,0.0,meteohub,2013-04-04 01:06:00,
2013-04-03 21:11:00,78.8,74.3,30.05,ESE,121,0.0,0.0,86,0.00,,,0.17,0.0,meteohub,2013-04-04 01:11:00,
2013-04-03 21:16:00,78.6,74.1,30.06,SE,138,0.0,0.0,86,0.00,,,0.17,0.0,meteohub,2013-04-04 01:16:00,
2013-04-03 21:22:00,78.4,74.3,30.06,SE,138,0.0,0.0,87,0.00,,,0.17,0.0,meteohub,2013-04-04 01:22:00,
2013-04-03 21:27:00,78.3,73.8,30.06,SE,138,0.0,0.0,86,0.00,,,0.17,0.0,meteohub,2013-04-04 01:27:00,
2013-04-03 21:32:00,78.3,73.8,30.06,SE,144,0.0,0.0,86,0.00,,,0.17,0.0,meteohub,2013-04-04 01:32:00,
2013-04-03 21:37:00,78.3,73.8,30.06,SE,143,0.0,0.0,86,0.00,,,0.17,0.0,meteohub,2013-04-04 01:37:00,
2013-04-03 21:42:00,78.3,73.8,30.06,SSE,165,0.0,0.0,86,0.00,,,0.17,0.0,meteohub,2013-04-04 01:42:00,
2013-04-03 21:47:00,78.1,73.2,30.06,SSE,165,0.0,1.0,85,0.00,,,0.17,0.0,meteohub,2013-04-04 01:47:00,
2013-04-03 21:52:00,78.3,73.4,30.06,SSE,165,0.0,1.0,85,0.00,,,0.17,0.0,meteohub,2013-04-04 01:52:00,
2013-04-03 21:57:00,78.3,73.4,30.06,SSE,165,0.0,0.0,85,0.00,,,0.17,0.0,meteohub,2013-04-04 01:57:00,
2013-04-03 22:02:00,78.3,73.4,30.07,SSE,155,0.0,0.0,85,0.00,,,0.17,0.0,meteohub,2013-04-04 02:02:00,
2013-04-03 22:07:00,78.3,73.8,30.07,SSE,151,0.0,2.0,86,0.00,,,0.17,0.0,meteohub,2013-04-04 02:07:00,
2013-04-03 22:12:00,78.1,73.6,30.07,SSE,151,0.0,2.0,86,0.00,,,0.17,0.0,meteohub,2013-04-04 02:12:00,
2013-04-03 22:17:00,77.9,73.4,30.07,SSE,151,0.0,2.0,86,0.00,,,0.17,0.0,meteohub,2013-04-04 02:17:00,
2013-04-03 22:22:00,77.7,73.2,30.07,SSE,151,0.0,0.0,86,0.00,,,0.17,0.0,meteohub,2013-04-04 02:22:00,
2013-04-03 22:27:00,77.7,73.2,30.07,SSE,151,0.0,0.0,86,0.00,,,0.17,0.0,meteohub,2013-04-04 02:27:00,
2013-04-03 22:33:00,77.7,73.2,30.07,SSE,151,0.0,0.0,86,0.00,,,0.17,0.0,meteohub,2013-04-04 02:33:00,
2013-04-03 22:38:00,77.5,73.0,30.07,SSE,152,0.0,0.0,86,0.00,,,0.17,0.0,meteohub,2013-04-04 02:38:00,
2013-04-03 22:43:00,77.4,72.9,30.07,SSE,152,0.0,0.0,86,0.00,,,0.17,0.0,meteohub,2013-04-04 02:43:00,
2013-04-03 22:48:00,77.2,73.0,30.07,SSE,151,0.0,0.0,87,0.00,,,0.17,0.0,meteohub,2013-04-04 02:48:00,
2013-04-03 22:53:00,77.2,73.0,30.07,SSE,151,0.0,0.0,87,0.00,,,0.17,0.0,meteohub,2013-04-04 02:53:00,
2013-04-03 22:58:00,77.0,72.9,30.08,SSE,151,0.0,0.0,87,0.00,,,0.17,0.0,meteohub,2013-04-04 02:58:00,
2013-04-03 23:03:00,77.0,72.9,30.08,SSE,152,0.0,0.0,87,0.00,,,0.17,0.0,meteohub,2013-04-04 03:03:00,
2013-04-03 23:08:00,77.0,72.9,30.08,SSE,151,0.0,0.0,87,0.00,,,0.17,0.0,meteohub,2013-04-04 03:08:00,
2013-04-03 23:13:00,76.8,73.0,30.08,SSE,151,0.0,0.0,88,0.00,,,0.17,0.0,meteohub,2013-04-04 03:13:00,
2013-04-03 23:18:00,76.6,72.9,30.08,SSE,151,0.0,0.0,88,0.00,,,0.17,0.0,meteohub,2013-04-04 03:18:00,
2013-04-03 23:23:00,76.6,72.9,30.08,SSE,152,0.0,0.0,88,0.00,,,0.17,0.0,meteohub,2013-04-04 03:23:00,
2013-04-03 23:28:00,76.6,72.9,30.07,SSE,151,0.0,0.0,88,0.00,,,0.17,0.0,meteohub,2013-04-04 03:28:00,
2013-04-03 23:33:00,76.6,72.5,30.07,SSE,152,0.0,0.0,87,0.00,,,0.17,0.0,meteohub,2013-04-04 03:33:00,
2013-04-03 23:38:00,76.8,72.3,30.07,SSE,152,0.0,0.0,86,0.00,,,0.17,0.0,meteohub,2013-04-04 03:38:00,
2013-04-03 23:43:00,77.0,72.5,30.08,SSE,151,0.0,0.0,86,0.00,,,0.17,0.0,meteohub,2013-04-04 03:43:00,
2013-04-03 23:48:00,76.8,72.3,30.08,SSE,151,0.0,0.0,86,0.00,,,0.17,0.0,meteohub,2013-04-04 03:48:00,
2013-04-03 23:53:00,76.8,72.3,30.08,SSE,152,0.0,0.0,86,0.00,,,0.17,0.0,meteohub,2013-04-04 03:53:00,
2013-04-03 23:58:00,76.6,72.1,30.07,SSE,152,0.0,0.0,86,0.00,,,0.17,0.0,meteohub,2013-04-04 03:58:00,